createdAt,value
2022-12-18T00:00:08.928Z,-4.20
2022-12-18T00:02:41.830Z,-4.20
2022-12-18T00:05:10.233Z,-4.10
2022-12-18T00:07:38.944Z,-4.10
2022-12-18T00:10:08.235Z,-4.10
2022-12-18T00:12:36.329Z,-4.10
2022-12-18T00:15:04.913Z,-4.00
2022-12-18T00:17:34.483Z,-4.10
2022-12-18T00:20:02.508Z,-4.00
2022-12-18T00:22:30.720Z,-4.00
2022-12-18T00:24:58.901Z,-4.00
2022-12-18T00:27:27.060Z,-3.90
2022-12-18T00:29:55.096Z,-3.90
2022-12-18T00:32:23.176Z,-3.90
2022-12-18T00:34:52.691Z,-4.00
2022-12-18T00:37:20.732Z,-3.90
2022-12-18T00:39:52.665Z,-4.00
2022-12-18T00:42:38.867Z,-3.90
2022-12-18T00:45:12.702Z,-3.90
2022-12-18T00:47:41.792Z,-3.90
2022-12-18T00:50:12.358Z,-4.00
2022-12-18T00:52:41.991Z,-3.90
2022-12-18T00:55:10.342Z,-3.90
2022-12-18T00:57:38.658Z,-3.90
2022-12-18T01:00:11.037Z,-3.90
2022-12-18T01:02:39.222Z,-4.00
2022-12-18T01:05:11.738Z,-4.00
2022-12-18T01:07:40.187Z,-4.00
2022-12-18T01:10:10.036Z,-4.00
2022-12-18T01:12:38.108Z,-4.00
2022-12-18T01:15:08.566Z,-4.00
2022-12-18T01:17:36.643Z,-3.90
2022-12-18T01:20:06.180Z,-4.00
2022-12-18T01:22:35.967Z,-4.00
2022-12-18T01:25:05.410Z,-4.00
2022-12-18T01:27:33.655Z,-3.90
2022-12-18T01:30:01.856Z,-4.00
2022-12-18T01:32:31.899Z,-4.00
2022-12-18T01:34:59.946Z,-4.00
2022-12-18T01:37:29.048Z,-4.00
2022-12-18T01:39:58.718Z,-4.00
2022-12-18T01:42:26.828Z,-4.00
2022-12-18T01:45:06.380Z,-4.00
2022-12-18T01:47:38.857Z,-4.00
2022-12-18T01:50:10.885Z,-3.90
2022-12-18T01:52:44.361Z,-3.90
2022-12-18T01:55:16.488Z,-3.90
2022-12-18T01:57:44.812Z,-3.90
2022-12-18T02:00:17.557Z,-3.90
2022-12-18T02:02:47.488Z,-4.00
2022-12-18T02:05:19.689Z,-4.00
2022-12-18T02:08:02.016Z,-4.00
2022-12-18T02:10:41.340Z,-4.00
2022-12-18T02:13:16.407Z,-4.10
2022-12-18T02:15:51.820Z,-4.10
2022-12-18T02:18:23.669Z,-4.10
2022-12-18T02:20:56.258Z,-4.00
2022-12-18T02:23:40.281Z,-4.00
2022-12-18T02:26:17.646Z,-4.00
2022-12-18T02:28:49.563Z,-4.10
2022-12-18T02:31:23.094Z,-4.10
2022-12-18T02:33:53.277Z,-4.10
2022-12-18T02:36:24.153Z,-4.10
2022-12-18T02:38:54.484Z,-4.00
2022-12-18T02:41:28.483Z,-4.00
2022-12-18T02:43:59.368Z,-4.00
2022-12-18T02:46:35.046Z,-4.00
2022-12-18T02:49:17.377Z,-4.00
2022-12-18T02:51:54.650Z,-4.10
2022-12-18T02:54:34.599Z,-4.00
2022-12-18T02:57:14.329Z,-4.10
2022-12-18T02:59:51.425Z,-3.90
2022-12-18T03:02:25.171Z,-4.10
2022-12-18T03:05:00.306Z,-4.10
2022-12-18T03:07:35.501Z,-4.10
2022-12-18T03:10:05.845Z,-4.10
2022-12-18T03:12:40.413Z,-4.10
2022-12-18T03:15:17.804Z,-4.20
2022-12-18T03:17:54.571Z,-4.20
2022-12-18T03:20:31.303Z,-4.20
2022-12-18T03:23:05.703Z,-4.10
2022-12-18T03:25:35.505Z,-4.00
2022-12-18T03:28:09.529Z,-4.00
2022-12-18T03:30:42.548Z,-4.00
2022-12-18T03:33:18.784Z,-4.10
2022-12-18T03:35:48.682Z,-4.10
2022-12-18T03:38:19.223Z,-4.10
2022-12-18T03:40:59.069Z,-4.20
2022-12-18T03:43:39.295Z,-4.10
2022-12-18T03:46:14.819Z,-4.20
2022-12-18T03:48:54.799Z,-4.20
2022-12-18T03:51:28.909Z,-4.20
2022-12-18T03:54:01.403Z,-4.20
2022-12-18T03:56:38.644Z,-4.20
2022-12-18T03:59:12.037Z,-4.20
2022-12-18T04:01:44.946Z,-4.20
2022-12-18T04:04:16.593Z,-4.20
2022-12-18T04:06:47.437Z,-4.30
2022-12-18T04:09:16.592Z,-4.30
2022-12-18T04:11:48.839Z,-4.30
2022-12-18T04:14:19.641Z,-4.30
2022-12-18T04:16:52.021Z,-4.40
2022-12-18T04:19:24.890Z,-4.40
2022-12-18T04:21:54.949Z,-4.30
2022-12-18T04:24:23.067Z,-4.30
2022-12-18T04:27:04.915Z,-4.40
2022-12-18T04:29:42.078Z,-4.40
2022-12-18T04:32:10.421Z,-4.40
2022-12-18T04:34:39.606Z,-4.40
2022-12-18T04:37:08.195Z,-4.40
2022-12-18T04:39:36.746Z,-4.40
2022-12-18T04:42:10.491Z,-4.40
2022-12-18T04:44:38.682Z,-4.70
2022-12-18T04:47:08.539Z,-4.80
2022-12-18T04:49:36.643Z,-4.80
2022-12-18T04:52:04.789Z,-4.90
2022-12-18T04:54:35.846Z,-5.00
2022-12-18T04:57:04.227Z,-5.20
2022-12-18T04:59:32.424Z,-5.20
2022-12-18T05:02:00.657Z,-5.40
2022-12-18T05:04:30.076Z,-5.50
2022-12-18T05:06:58.319Z,-5.60
2022-12-18T05:09:26.486Z,-5.70
2022-12-18T05:11:54.712Z,-5.70
2022-12-18T05:14:22.930Z,-5.70
2022-12-18T05:16:51.263Z,-5.70
2022-12-18T05:19:19.567Z,-5.70
2022-12-18T05:21:49.014Z,-5.70
2022-12-18T05:24:17.442Z,-5.80
2022-12-18T05:26:45.463Z,-5.70
2022-12-18T05:29:13.602Z,-5.70
2022-12-18T05:31:42.389Z,-5.70
2022-12-18T05:34:11.795Z,-5.70
2022-12-18T05:36:40.856Z,-5.70
2022-12-18T05:39:10.656Z,-5.70
2022-12-18T05:41:38.696Z,-5.60
2022-12-18T05:44:06.951Z,-5.60
2022-12-18T05:46:35.059Z,-5.60
2022-12-18T05:49:03.376Z,-5.60
2022-12-18T05:51:32.483Z,-5.40
2022-12-18T05:54:00.583Z,-5.40
2022-12-18T05:56:30.036Z,-5.30
2022-12-18T05:58:58.066Z,-5.20
2022-12-18T06:01:28.296Z,-5.20
2022-12-18T06:03:57.022Z,-5.10
2022-12-18T06:06:27.205Z,-5.10
2022-12-18T06:08:56.231Z,-5.00
2022-12-18T06:11:26.641Z,-5.00
2022-12-18T06:13:59.164Z,-5.00
2022-12-18T06:16:28.269Z,-4.90
2022-12-18T06:18:58.355Z,-5.00
2022-12-18T06:21:26.580Z,-5.00
2022-12-18T06:23:54.706Z,-4.90
2022-12-18T06:26:27.777Z,-4.80
2022-12-18T06:28:57.850Z,-4.80
2022-12-18T06:31:27.366Z,-4.90
2022-12-18T06:33:55.512Z,-4.80
2022-12-18T06:36:23.863Z,-4.80
2022-12-18T06:38:52.138Z,-4.80
2022-12-18T06:41:22.267Z,-4.80
2022-12-18T06:43:50.419Z,-4.70
2022-12-18T06:46:19.955Z,-4.70
2022-12-18T06:48:50.864Z,-4.70
2022-12-18T06:51:23.411Z,-4.70
2022-12-18T06:53:51.891Z,-4.70
2022-12-18T06:56:20.155Z,-4.70
2022-12-18T06:58:48.311Z,-4.70
2022-12-18T07:01:16.525Z,-4.70
2022-12-18T07:03:46.244Z,-4.60
2022-12-18T07:06:19.670Z,-4.60
2022-12-18T07:08:48.317Z,-4.60
2022-12-18T07:11:17.291Z,-4.50
2022-12-18T07:13:46.239Z,-4.50
2022-12-18T07:16:21.138Z,-4.40
2022-12-18T07:18:53.852Z,-4.40
2022-12-18T07:21:22.881Z,-4.30
2022-12-18T07:23:50.924Z,-4.30
2022-12-18T07:26:20.827Z,-4.30
2022-12-18T07:28:49.698Z,-4.30
2022-12-18T07:31:21.638Z,-4.30
2022-12-18T07:33:50.581Z,-4.20
2022-12-18T07:36:20.954Z,-4.10
2022-12-18T07:38:50.055Z,-4.00
2022-12-18T07:41:20.698Z,-4.00
2022-12-18T07:43:49.435Z,-4.10
2022-12-18T07:46:18.620Z,-4.00
2022-12-18T07:48:49.772Z,-4.00
2022-12-18T07:51:21.050Z,-4.00
2022-12-18T07:53:52.103Z,-4.00
2022-12-18T07:56:27.672Z,-3.90
2022-12-18T07:58:57.258Z,-3.90
2022-12-18T08:01:25.976Z,-3.80
2022-12-18T08:03:54.335Z,-3.90
2022-12-18T08:06:24.751Z,-3.90
2022-12-18T08:08:54.590Z,-3.90
2022-12-18T08:11:23.655Z,-3.90
2022-12-18T08:13:51.733Z,-3.80
2022-12-18T08:16:20.715Z,-3.80
2022-12-18T08:18:49.770Z,-3.80
2022-12-18T08:21:22.029Z,-3.70
2022-12-18T08:23:52.550Z,-3.70
2022-12-18T08:26:21.312Z,-3.80
2022-12-18T08:28:50.388Z,-3.80
2022-12-18T08:31:19.827Z,-3.80
2022-12-18T08:33:51.558Z,-3.70
2022-12-18T08:36:20.235Z,-3.60
2022-12-18T08:38:48.643Z,-3.40
2022-12-18T08:41:19.356Z,-3.40
2022-12-18T08:44:05.285Z,-3.40
2022-12-18T08:46:38.803Z,-3.50
2022-12-18T08:49:08.196Z,-3.40
2022-12-18T08:51:36.854Z,-3.50
2022-12-18T08:54:06.398Z,-3.50
2022-12-18T08:56:36.113Z,-3.60
2022-12-18T08:59:05.403Z,-3.60
2022-12-18T09:01:33.775Z,-3.60
2022-12-18T09:04:03.562Z,-3.60
2022-12-18T09:06:32.852Z,-3.60
2022-12-18T09:09:00.865Z,-3.60
2022-12-18T09:11:30.610Z,-3.60
2022-12-18T09:14:01.782Z,-3.60
2022-12-18T09:16:32.601Z,-3.60
2022-12-18T09:19:01.274Z,-3.60
2022-12-18T09:21:31.265Z,-3.50
2022-12-18T09:24:01.116Z,-3.30
2022-12-18T09:26:29.138Z,-3.30
2022-12-18T09:28:57.202Z,-3.30
2022-12-18T09:31:26.848Z,-3.20
2022-12-18T09:33:56.491Z,-3.20
2022-12-18T09:36:24.553Z,-3.10
2022-12-18T09:38:52.592Z,-3.00
2022-12-18T09:41:41.146Z,-3.00
2022-12-18T09:44:20.449Z,-2.90
2022-12-18T09:46:57.927Z,-2.90
2022-12-18T09:49:30.943Z,-2.90
2022-12-18T09:52:03.930Z,-2.70
2022-12-18T09:54:35.638Z,-2.70
2022-12-18T09:57:03.885Z,-2.70
2022-12-18T09:59:36.285Z,-2.60
2022-12-18T10:02:16.901Z,-2.80
2022-12-18T10:04:45.494Z,-2.80
2022-12-18T10:07:20.360Z,-2.90
2022-12-18T10:09:55.826Z,-3.00
2022-12-18T10:12:29.729Z,-2.90
2022-12-18T10:15:03.931Z,-3.00
2022-12-18T10:17:41.710Z,-2.90
2022-12-18T10:20:15.766Z,-3.00
2022-12-18T10:22:54.110Z,-3.00
2022-12-18T10:25:27.309Z,-2.90
2022-12-18T10:27:59.496Z,-2.90
2022-12-18T10:30:28.210Z,-2.90
2022-12-18T10:33:02.824Z,-2.90
2022-12-18T10:35:31.976Z,-2.90
2022-12-18T10:38:07.285Z,-2.80
2022-12-18T10:40:50.524Z,-2.80
2022-12-18T10:43:23.946Z,-2.70
2022-12-18T10:46:06.358Z,-2.70
2022-12-18T10:48:38.128Z,-2.60
2022-12-18T10:51:13.116Z,-2.60
2022-12-18T10:53:44.661Z,-2.60
2022-12-18T10:56:12.990Z,-2.60
2022-12-18T10:58:41.913Z,-2.50
2022-12-18T11:01:13.058Z,-2.50
2022-12-18T11:03:45.784Z,-2.70
2022-12-18T11:06:15.861Z,-2.60
2022-12-18T11:08:46.465Z,-2.60
2022-12-18T11:11:22.842Z,-2.70
2022-12-18T11:14:03.110Z,-2.60
2022-12-18T11:16:35.685Z,-2.60
2022-12-18T11:19:32.467Z,-2.60
2022-12-18T11:22:01.520Z,-2.50
2022-12-18T11:27:50.639Z,-2.50
2022-12-18T11:30:24.617Z,-2.40
2022-12-18T11:32:55.255Z,-2.40
2022-12-18T11:35:35.231Z,-2.30
2022-12-18T11:38:12.803Z,-2.30
2022-12-18T11:40:44.133Z,-2.10
2022-12-18T11:43:16.938Z,-2.10
2022-12-18T11:45:53.088Z,-2.20
2022-12-18T11:48:25.841Z,-2.10
2022-12-18T11:50:57.363Z,-2.30
2022-12-18T11:53:27.185Z,-2.20
2022-12-18T11:56:05.992Z,-2.20
2022-12-18T11:58:49.160Z,-2.10
2022-12-18T12:01:40.361Z,-2.10
2022-12-18T12:04:32.410Z,-2.00
2022-12-18T12:07:13.244Z,-1.90
2022-12-18T12:09:51.977Z,-1.80
2022-12-18T12:12:48.613Z,-1.80
2022-12-18T12:15:27.188Z,-1.80
2022-12-18T12:18:06.866Z,-1.90
2022-12-18T12:20:48.102Z,-1.90
2022-12-18T12:23:27.701Z,-1.90
2022-12-18T12:26:02.446Z,-1.80
2022-12-18T12:28:52.704Z,-1.80
2022-12-18T12:31:33.679Z,-1.80
2022-12-18T12:34:08.744Z,-1.80
2022-12-18T12:36:48.725Z,-1.90
2022-12-18T12:39:23.648Z,-1.80
2022-12-18T12:42:09.145Z,-1.90
2022-12-18T12:44:41.371Z,-1.90
2022-12-18T12:47:15.442Z,-2.00
2022-12-18T12:49:50.427Z,-2.00
2022-12-18T12:52:32.945Z,-1.90
2022-12-18T12:55:11.543Z,-1.90
2022-12-18T12:57:47.360Z,-2.00
2022-12-18T13:00:16.680Z,-2.10
2022-12-18T13:02:50.543Z,-2.20
2022-12-18T13:05:25.811Z,-2.30
2022-12-18T13:08:00.057Z,-2.30
2022-12-18T13:10:37.778Z,-2.30
2022-12-18T13:13:09.235Z,-2.30
2022-12-18T13:15:46.822Z,-2.30
2022-12-18T13:18:21.402Z,-2.30
2022-12-18T13:20:55.402Z,-2.40
2022-12-18T13:23:34.079Z,-2.40
2022-12-18T13:26:35.521Z,-2.40
2022-12-18T13:29:05.265Z,-2.50
2022-12-18T13:32:10.038Z,-2.60
2022-12-18T13:34:38.531Z,-2.70
2022-12-18T13:37:55.736Z,-2.70
2022-12-18T13:40:57.934Z,-2.70
2022-12-18T13:43:43.908Z,-2.80
2022-12-18T13:46:24.693Z,-2.80
2022-12-18T13:48:56.935Z,-2.90
2022-12-18T13:51:26.228Z,-3.00
2022-12-18T13:53:59.970Z,-3.00
2022-12-18T13:56:30.339Z,-3.10
2022-12-18T13:59:18.548Z,-3.10
2022-12-18T14:01:49.589Z,-3.10
2022-12-18T14:04:33.042Z,-3.10
2022-12-18T14:07:05.783Z,-3.20
2022-12-18T14:09:38.172Z,-3.20
2022-12-18T14:12:32.591Z,-3.20
2022-12-18T14:15:03.553Z,-3.10
2022-12-18T14:17:33.624Z,-3.20
2022-12-18T14:20:02.832Z,-3.20
2022-12-18T14:22:32.693Z,-3.20
2022-12-18T14:25:17.149Z,-3.10
2022-12-18T14:27:46.812Z,-3.20
2022-12-18T14:30:33.984Z,-3.20
2022-12-18T14:33:05.210Z,-3.30
2022-12-18T14:35:33.687Z,-3.30
2022-12-18T14:38:30.646Z,-3.30
2022-12-18T14:41:04.089Z,-3.30
2022-12-18T14:43:35.520Z,-3.30
2022-12-18T14:46:07.232Z,-3.40
2022-12-18T14:48:40.949Z,-3.50
2022-12-18T14:51:18.061Z,-3.50
2022-12-18T14:53:54.145Z,-3.50
2022-12-18T14:56:24.704Z,-3.50
2022-12-18T14:58:55.936Z,-3.50
2022-12-18T15:01:28.876Z,-3.60
2022-12-18T15:03:58.787Z,-3.50
2022-12-18T15:06:33.068Z,-3.50
2022-12-18T15:09:02.062Z,-3.60
2022-12-18T15:11:37.417Z,-3.60
2022-12-18T15:14:35.657Z,-3.50
2022-12-18T15:17:08.373Z,-3.60
2022-12-18T15:19:41.031Z,-3.60
2022-12-18T15:22:21.281Z,-3.60
2022-12-18T15:24:50.813Z,-3.60
2022-12-18T15:27:30.267Z,-3.70
2022-12-18T15:30:28.601Z,-3.70
2022-12-18T15:33:27.562Z,-3.70
2022-12-18T15:35:59.345Z,-3.70
2022-12-18T15:38:27.925Z,-3.70
2022-12-18T15:40:56.582Z,-3.70
2022-12-18T15:43:38.438Z,-3.70
2022-12-18T15:46:08.456Z,-3.80
2022-12-18T15:48:41.333Z,-3.70
2022-12-18T15:51:18.124Z,-3.70
2022-12-18T15:53:47.121Z,-3.70
2022-12-18T15:56:33.522Z,-3.80
2022-12-18T15:59:02.334Z,-3.70
2022-12-18T16:01:36.097Z,-3.70
2022-12-18T16:04:12.682Z,-3.60
2022-12-18T16:07:12.619Z,-3.80
2022-12-18T16:09:31.483Z,-3.70
2022-12-18T16:12:02.693Z,-3.70
2022-12-18T16:14:32.647Z,-3.70
2022-12-18T16:17:02.492Z,-3.70
2022-12-18T16:19:34.584Z,-3.70
2022-12-18T16:22:07.614Z,-3.70
2022-12-18T16:24:37.270Z,-3.70
2022-12-18T16:27:05.394Z,-3.70
2022-12-18T16:29:33.971Z,-3.70
2022-12-18T16:32:02.686Z,-3.70
2022-12-18T16:34:35.810Z,-3.60
2022-12-18T16:37:06.711Z,-3.60
2022-12-18T16:39:35.665Z,-3.60
2022-12-18T16:42:07.426Z,-3.60
2022-12-18T16:44:36.511Z,-3.60
2022-12-18T16:47:05.653Z,-3.60
2022-12-18T16:49:37.586Z,-3.60
2022-12-18T16:52:06.073Z,-3.60
2022-12-18T16:54:35.215Z,-3.60
2022-12-18T16:57:03.378Z,-3.60
2022-12-18T16:59:31.415Z,-3.60
2022-12-18T17:02:00.132Z,-3.60
2022-12-18T17:04:28.291Z,-3.60
2022-12-18T17:06:57.865Z,-3.60
2022-12-18T17:09:26.197Z,-3.60
2022-12-18T17:11:57.356Z,-3.70
2022-12-18T17:14:26.414Z,-3.70
2022-12-18T17:17:19.645Z,-3.80
2022-12-18T17:19:43.536Z,-3.80
2022-12-18T17:22:13.031Z,-3.70
2022-12-18T17:24:41.045Z,-3.70
2022-12-18T17:27:09.549Z,-3.70
2022-12-18T17:29:42.484Z,-3.70
2022-12-18T17:32:14.917Z,-3.70
2022-12-18T17:34:42.915Z,-3.70
2022-12-18T17:37:12.293Z,-3.70
2022-12-18T17:39:40.887Z,-3.70
2022-12-18T17:42:10.623Z,-3.70
2022-12-18T17:44:43.478Z,-3.70
2022-12-18T17:47:12.212Z,-3.70
2022-12-18T17:49:40.604Z,-3.80
2022-12-18T17:52:08.535Z,-3.90
2022-12-18T17:54:39.760Z,-3.90
2022-12-18T17:57:07.988Z,-3.90
2022-12-18T17:59:36.068Z,-3.90
2022-12-18T18:02:04.308Z,-3.90
2022-12-18T18:04:32.948Z,-3.90
2022-12-18T18:07:01.037Z,-3.90
2022-12-18T18:09:29.344Z,-3.90
2022-12-18T18:12:16.232Z,-3.90
2022-12-18T18:14:44.513Z,-3.90
2022-12-18T18:17:12.984Z,-3.90
2022-12-18T18:19:42.095Z,-3.90
2022-12-18T18:22:11.746Z,-3.90
2022-12-18T18:24:40.119Z,-4.00
2022-12-18T18:27:12.739Z,-4.00
2022-12-18T18:29:41.101Z,-4.00
2022-12-18T18:32:09.268Z,-4.10
2022-12-18T18:34:37.837Z,-4.00
2022-12-18T18:37:06.455Z,-4.00
2022-12-18T18:39:34.621Z,-4.10
2022-12-18T18:42:03.363Z,-4.10
2022-12-18T18:44:33.531Z,-4.10
2022-12-18T18:47:01.596Z,-4.10
2022-12-18T18:49:31.875Z,-4.20
2022-12-18T18:52:00.336Z,-4.30
2022-12-18T18:54:28.491Z,-4.30
2022-12-18T18:57:19.433Z,-4.40
2022-12-18T18:59:47.603Z,-4.40
2022-12-18T19:02:16.708Z,-4.30
2022-12-18T19:04:46.715Z,-4.50
2022-12-18T19:07:29.994Z,-4.50
2022-12-18T19:10:05.082Z,-4.50
2022-12-18T19:12:51.914Z,-4.60
2022-12-18T19:15:21.597Z,-4.50
2022-12-18T19:17:49.795Z,-4.60
2022-12-18T19:20:18.350Z,-4.60
2022-12-18T19:22:49.039Z,-4.50
2022-12-18T19:25:29.732Z,-4.50
2022-12-18T19:28:15.112Z,-4.50
2022-12-18T19:30:57.302Z,-4.50
2022-12-18T19:33:42.266Z,-4.50
2022-12-18T19:36:12.965Z,-4.50
2022-12-18T19:38:44.825Z,-4.60
2022-12-18T19:41:14.706Z,-4.60
2022-12-18T19:43:43.303Z,-4.60
2022-12-18T19:46:15.451Z,-4.60
2022-12-18T19:48:45.101Z,-4.60
2022-12-18T19:51:16.907Z,-4.50
2022-12-18T19:53:45.002Z,-4.60
2022-12-18T19:56:14.852Z,-4.60
2022-12-18T19:58:44.092Z,-4.60
2022-12-18T20:01:16.472Z,-4.60
2022-12-18T20:03:51.635Z,-4.60
2022-12-18T20:06:25.331Z,-4.60
2022-12-18T20:08:55.873Z,-4.60
2022-12-18T20:11:29.587Z,-4.60
2022-12-18T20:13:57.983Z,-4.70
2022-12-18T20:16:30.846Z,-4.60
2022-12-18T20:18:59.884Z,-4.60
2022-12-18T20:21:28.343Z,-4.70
2022-12-18T20:23:56.850Z,-4.70
2022-12-18T20:26:25.344Z,-4.70
2022-12-18T20:28:55.153Z,-4.80
2022-12-18T20:31:23.459Z,-4.80
2022-12-18T20:33:54.463Z,-4.80
2022-12-18T20:36:24.659Z,-4.80
2022-12-18T20:38:57.190Z,-4.80
2022-12-18T20:41:27.724Z,-4.80
2022-12-18T20:44:06.275Z,-4.80
2022-12-18T20:46:39.131Z,-4.80
2022-12-18T20:49:08.520Z,-4.80
2022-12-18T20:51:37.194Z,-4.70
2022-12-18T20:54:09.121Z,-4.70
2022-12-18T20:56:39.736Z,-4.80
2022-12-18T20:59:07.959Z,-4.80
2022-12-18T21:01:36.241Z,-4.70
2022-12-18T21:04:05.997Z,-4.70
2022-12-18T21:06:35.414Z,-4.70
2022-12-18T21:09:03.621Z,-4.70
2022-12-18T21:11:50.710Z,-4.70
2022-12-18T21:14:21.218Z,-4.70
2022-12-18T21:16:51.797Z,-4.70
2022-12-18T21:19:21.305Z,-4.70
2022-12-18T21:21:51.543Z,-4.70
2022-12-18T21:24:20.077Z,-4.70
2022-12-18T21:26:50.077Z,-4.70
2022-12-18T21:29:20.553Z,-4.80
2022-12-18T21:31:49.185Z,-4.70
2022-12-18T21:34:18.553Z,-4.80
2022-12-18T21:36:46.844Z,-4.70
2022-12-18T21:39:17.633Z,-4.70
2022-12-18T21:42:03.230Z,-4.70
2022-12-18T21:44:40.171Z,-4.70
2022-12-18T21:47:16.879Z,-4.70
2022-12-18T21:49:51.793Z,-4.70
2022-12-18T21:52:20.333Z,-4.70
2022-12-18T21:54:53.914Z,-4.70
2022-12-18T21:57:22.348Z,-4.80
2022-12-18T21:59:50.563Z,-4.80
2022-12-18T22:02:21.162Z,-4.70
2022-12-18T22:04:49.692Z,-4.80
2022-12-18T22:07:19.919Z,-4.80
2022-12-18T22:09:48.414Z,-4.80
2022-12-18T22:12:35.328Z,-4.80
2022-12-18T22:15:05.641Z,-4.80
2022-12-18T22:17:33.912Z,-4.80
2022-12-18T22:20:01.935Z,-4.80
2022-12-18T22:22:30.776Z,-4.80
2022-12-18T22:24:58.928Z,-4.70
2022-12-18T22:27:28.374Z,-4.70
2022-12-18T22:30:04.166Z,-4.70
2022-12-18T22:32:32.865Z,-4.70
2022-12-18T22:35:06.255Z,-4.70
2022-12-18T22:37:37.007Z,-4.80
2022-12-18T22:40:07.406Z,-4.70
2022-12-18T22:42:37.101Z,-4.70
2022-12-18T22:45:05.863Z,-4.70
2022-12-18T22:47:34.376Z,-4.70
2022-12-18T22:50:02.556Z,-4.70
2022-12-18T22:52:30.696Z,-4.70
2022-12-18T22:54:58.731Z,-4.80
2022-12-18T22:57:27.405Z,-4.80
2022-12-18T22:59:56.849Z,-4.80
2022-12-18T23:02:25.031Z,-4.80
2022-12-18T23:04:53.154Z,-4.80
2022-12-18T23:07:21.509Z,-4.80
2022-12-18T23:09:58.926Z,-4.80
2022-12-18T23:12:29.547Z,-4.70
2022-12-18T23:14:59.316Z,-4.80
2022-12-18T23:17:27.356Z,-4.80
2022-12-18T23:19:55.316Z,-4.80
2022-12-18T23:22:23.445Z,-4.90
2022-12-18T23:24:51.605Z,-4.90
2022-12-18T23:27:19.713Z,-4.80
2022-12-18T23:29:47.765Z,-4.80
2022-12-18T23:32:18.159Z,-4.80
2022-12-18T23:34:46.158Z,-4.80
2022-12-18T23:37:24.931Z,-4.80
2022-12-18T23:40:02.245Z,-4.80
2022-12-18T23:42:30.334Z,-4.80
2022-12-18T23:44:58.369Z,-4.80
2022-12-18T23:47:29.348Z,-4.80
2022-12-18T23:49:57.359Z,-4.80
2022-12-18T23:52:26.111Z,-4.80
2022-12-18T23:54:57.129Z,-4.80
2022-12-18T23:57:25.267Z,-4.80
2022-12-18T23:59:54.955Z,-4.80
